Mc Clellanville, South Carolina
Current Conditions -  °F | °C
As of 10:35 PM on Sunday 21 Dec 2014 (Local Time) from KGGE Reporting Station
Drizzle Drizzle  
Wind Chill: 40°   Ceiling: 1300
Heat Index: 45°   Visibility: 10mi
Dew Point: 45°   Wind: 8mph
Humidity: 100%   Direction: 20°NNE
Pressure: 30.16"   Gusts: NA
Location:  33.1132°N, 79.5134°W
Report Text: KGGE 220335Z AUTO 02007KT 10SM DZ BKN013 OVC018 07/07 A3016 RMK AO2
Loading
Personal Weather Stations






























Interactive Weather Map New forecast layout! Learn more

10-Day Weather Forecast

Advertisements
Track Severe Weather on mobile